createdAt,value
2023-03-15T00:00:52.089Z,17.70
2023-03-15T00:03:18.736Z,17.60
2023-03-15T00:05:47.466Z,18.00
2023-03-15T00:08:15.286Z,18.98
2023-03-15T00:10:43.066Z,18.02
2023-03-15T00:13:09.925Z,18.17
2023-03-15T00:15:37.333Z,18.63
2023-03-15T00:18:04.529Z,19.13
2023-03-15T00:20:31.309Z,19.92
2023-03-15T00:22:57.962Z,19.27
2023-03-15T00:25:24.537Z,18.50
2023-03-15T00:27:51.131Z,18.70
2023-03-15T00:30:17.788Z,19.48
2023-03-15T00:32:44.422Z,18.90
2023-03-15T00:35:12.839Z,17.73
2023-03-15T00:37:39.575Z,17.98
2023-03-15T00:40:07.571Z,17.88
2023-03-15T00:42:34.246Z,17.85
2023-03-15T00:45:00.916Z,18.88
2023-03-15T00:47:27.503Z,18.27
2023-03-15T00:49:54.600Z,17.92
2023-03-15T00:52:22.412Z,19.33
2023-03-15T00:54:55.812Z,18.90
2023-03-15T00:57:22.654Z,18.88
2023-03-15T00:59:49.298Z,18.25
2023-03-15T01:02:15.893Z,19.48
2023-03-15T01:04:42.818Z,18.85
2023-03-15T01:07:09.605Z,18.98
2023-03-15T01:09:37.676Z,18.70
2023-03-15T01:12:05.443Z,18.67
2023-03-15T01:14:32.112Z,18.00
2023-03-15T01:16:58.745Z,18.80
2023-03-15T01:19:25.392Z,19.35
2023-03-15T01:21:53.166Z,19.95
2023-03-15T01:24:20.269Z,18.88
2023-03-15T01:26:48.712Z,19.13
2023-03-15T01:29:17.735Z,18.75
2023-03-15T01:31:44.562Z,18.02
2023-03-15T01:34:11.237Z,17.63
2023-03-15T01:36:37.998Z,16.40
2023-03-15T01:39:04.964Z,14.50
2023-03-15T01:41:40.325Z,12.00
2023-03-15T01:44:12.311Z,10.73
2023-03-15T01:46:39.026Z,8.82
2023-03-15T01:49:17.655Z,6.50
2023-03-15T01:51:50.940Z,5.57
2023-03-15T01:54:36.896Z,4.85
2023-03-15T02:00:07.029Z,4.57
2023-03-15T02:02:47.042Z,5.30
2023-03-15T02:05:23.348Z,5.65
2023-03-15T02:07:51.010Z,7.93
2023-03-15T02:10:27.204Z,6.25
2023-03-15T02:12:56.136Z,9.32
2023-03-15T02:15:23.643Z,9.70
2023-03-15T02:17:50.470Z,8.50
2023-03-15T02:20:27.589Z,7.80
2023-03-15T02:23:00.542Z,9.60
2023-03-15T02:25:54.686Z,8.60
2023-03-15T02:28:22.221Z,6.55
2023-03-15T02:30:49.986Z,6.30
2023-03-15T02:33:25.075Z,6.25
2023-03-15T02:35:54.039Z,5.38
2023-03-15T02:38:22.473Z,6.65
2023-03-15T02:40:51.537Z,7.10
2023-03-15T02:43:22.383Z,6.97
2023-03-15T02:45:50.048Z,10.85
2023-03-15T02:48:17.976Z,5.88
2023-03-15T02:50:44.648Z,7.25
2023-03-15T02:53:12.189Z,7.82
2023-03-15T02:55:39.138Z,8.32
2023-03-15T02:58:06.381Z,8.80
2023-03-15T03:00:33.361Z,10.25
2023-03-15T03:02:59.937Z,9.18
2023-03-15T03:05:27.046Z,12.63
2023-03-15T03:07:53.908Z,10.60
2023-03-15T03:10:21.167Z,12.85
2023-03-15T03:12:53.460Z,13.02
2023-03-15T03:15:25.888Z,13.27
2023-03-15T03:17:54.377Z,12.63
2023-03-15T03:20:23.240Z,13.88
2023-03-15T03:22:49.899Z,15.35
2023-03-15T03:25:17.977Z,17.05
2023-03-15T03:27:46.780Z,20.48
2023-03-15T03:30:14.831Z,19.42
2023-03-15T03:32:47.713Z,20.52
2023-03-15T03:35:16.113Z,23.13
2023-03-15T03:37:43.328Z,24.90
2023-03-15T03:40:17.645Z,23.50
2023-03-15T03:42:44.850Z,27.92
2023-03-15T03:45:17.664Z,25.65
2023-03-15T03:47:46.433Z,30.92
2023-03-15T03:50:13.035Z,33.20
2023-03-15T03:52:43.684Z,33.15
2023-03-15T03:55:14.885Z,32.80
2023-03-15T03:57:43.610Z,31.02
2023-03-15T04:00:15.799Z,34.10
2023-03-15T04:02:43.225Z,35.45
2023-03-15T04:05:12.273Z,36.35
2023-03-15T04:07:39.526Z,32.25
2023-03-15T04:10:07.690Z,34.33
2023-03-15T04:12:35.296Z,37.92
2023-03-15T04:15:02.173Z,33.92
2023-03-15T04:17:32.393Z,37.83
2023-03-15T04:20:01.727Z,40.17
2023-03-15T04:22:29.771Z,40.15
2023-03-15T04:25:02.650Z,40.97
2023-03-15T04:27:40.662Z,42.58
2023-03-15T04:30:19.040Z,40.97
2023-03-15T04:32:58.905Z,42.00
2023-03-15T04:35:43.625Z,41.70
2023-03-15T04:38:35.309Z,37.80
2023-03-15T04:41:21.506Z,42.53
2023-03-15T04:44:08.789Z,40.67
2023-03-15T04:46:38.359Z,43.50
2023-03-15T04:49:18.681Z,44.88
2023-03-15T04:51:55.698Z,45.22
2023-03-15T04:54:46.483Z,46.53
2023-03-15T04:57:39.933Z,45.63
2023-03-15T05:00:15.149Z,43.95
2023-03-15T05:03:01.662Z,42.75
2023-03-15T05:05:48.580Z,35.55
2023-03-15T05:08:37.284Z,34.85
2023-03-15T05:11:13.072Z,38.08
2023-03-15T05:13:58.363Z,38.85
2023-03-15T05:16:55.852Z,43.17
2023-03-15T05:19:42.758Z,42.53
2023-03-15T05:22:28.180Z,41.03
2023-03-15T05:25:17.384Z,45.03
2023-03-15T05:28:05.474Z,45.10
2023-03-15T05:30:51.993Z,42.17
2023-03-15T05:33:46.834Z,46.50
2023-03-15T05:36:36.344Z,44.70
2023-03-15T05:39:34.516Z,41.40
2023-03-15T05:42:25.997Z,40.42
2023-03-15T05:45:00.116Z,32.60
2023-03-15T05:47:38.939Z,34.88
2023-03-15T05:50:23.727Z,25.00
2023-03-15T05:55:44.742Z,23.58
2023-03-15T05:58:36.236Z,24.60
2023-03-15T06:01:24.164Z,22.90
2023-03-15T06:04:07.078Z,24.48
2023-03-15T06:06:35.021Z,23.88
2023-03-15T06:09:04.502Z,19.70
2023-03-15T06:11:31.246Z,19.40
2023-03-15T06:13:59.447Z,20.10
2023-03-15T06:16:41.259Z,17.65
2023-03-15T06:19:08.371Z,16.25
2023-03-15T06:21:35.238Z,16.65
2023-03-15T06:24:06.456Z,16.52
2023-03-15T06:26:34.533Z,14.43
2023-03-15T06:29:03.531Z,15.90
2023-03-15T06:31:30.310Z,16.60
2023-03-15T06:34:02.593Z,15.38
2023-03-15T06:36:31.290Z,14.95
2023-03-15T06:38:58.110Z,15.63
2023-03-15T06:41:24.788Z,15.75
2023-03-15T06:43:56.680Z,13.02
2023-03-15T06:46:23.378Z,17.08
2023-03-15T06:48:49.990Z,14.70
2023-03-15T06:51:17.061Z,15.88
2023-03-15T06:53:43.760Z,15.68
2023-03-15T06:56:10.780Z,12.88
2023-03-15T06:58:37.484Z,13.00
2023-03-15T07:01:04.708Z,12.52
2023-03-15T07:03:31.542Z,13.57
2023-03-15T07:05:58.335Z,12.13
2023-03-15T07:08:25.884Z,12.48
2023-03-15T07:10:52.612Z,11.27
2023-03-15T07:13:19.976Z,10.80
2023-03-15T07:15:50.900Z,11.88
2023-03-15T07:18:17.824Z,11.25
2023-03-15T07:20:44.468Z,10.98
2023-03-15T07:23:11.212Z,11.15
2023-03-15T07:25:54.129Z,10.85
2023-03-15T07:28:22.751Z,11.75
2023-03-15T07:30:57.592Z,9.95
2023-03-15T07:35:55.872Z,11.07
2023-03-15T07:38:25.093Z,10.93
2023-03-15T07:40:52.123Z,11.10
2023-03-15T07:43:19.416Z,12.07
2023-03-15T07:45:49.981Z,11.50
2023-03-15T07:48:16.874Z,12.38
2023-03-15T07:50:43.598Z,15.02
2023-03-15T07:53:10.250Z,16.95
2023-03-15T07:55:37.009Z,12.80
2023-03-15T07:58:04.860Z,12.02
2023-03-15T08:00:32.104Z,13.48
2023-03-15T08:02:59.370Z,14.25
2023-03-15T08:05:28.852Z,13.52
2023-03-15T08:07:56.515Z,14.38
2023-03-15T08:10:23.390Z,12.80
2023-03-15T08:12:50.123Z,12.80
2023-03-15T08:15:16.959Z,13.73
2023-03-15T08:17:44.040Z,13.23
2023-03-15T08:20:11.577Z,12.68
2023-03-15T08:22:39.016Z,13.27
2023-03-15T08:25:06.510Z,13.10
2023-03-15T08:27:33.232Z,14.20
2023-03-15T08:29:59.937Z,14.32
2023-03-15T08:32:26.796Z,13.82
2023-03-15T08:34:53.497Z,16.70
2023-03-15T08:37:20.940Z,15.25
2023-03-15T08:39:47.562Z,16.20
2023-03-15T08:42:14.192Z,15.65
2023-03-15T08:44:40.926Z,17.45
2023-03-15T08:47:07.778Z,16.00
2023-03-15T08:49:35.923Z,17.48
2023-03-15T08:52:02.812Z,17.42
2023-03-15T08:54:29.422Z,16.42
2023-03-15T08:56:56.041Z,17.38
2023-03-15T08:59:31.690Z,17.45
2023-03-15T09:02:00.450Z,20.40
2023-03-15T09:04:27.799Z,21.80
2023-03-15T09:06:54.942Z,24.73
2023-03-15T09:09:22.145Z,26.75
2023-03-15T09:11:48.934Z,27.85
2023-03-15T09:14:15.977Z,24.17
2023-03-15T09:16:42.740Z,24.55
2023-03-15T09:19:09.777Z,24.27
2023-03-15T09:21:36.567Z,23.05
2023-03-15T09:24:03.489Z,25.30
2023-03-15T09:26:30.528Z,23.15
2023-03-15T09:28:57.197Z,24.63
2023-03-15T09:31:24.789Z,23.60
2023-03-15T09:33:51.553Z,30.13
2023-03-15T09:36:18.233Z,18.38
2023-03-15T09:38:44.896Z,18.60
2023-03-15T09:41:20.955Z,18.83
2023-03-15T09:43:59.067Z,20.67
2023-03-15T09:46:30.017Z,20.45
2023-03-15T09:49:34.323Z,23.05
2023-03-15T09:52:09.743Z,27.08
2023-03-15T09:54:57.371Z,29.00
2023-03-15T09:58:03.792Z,26.13
2023-03-15T10:00:38.248Z,24.95
2023-03-15T10:03:09.705Z,23.30
2023-03-15T10:05:41.608Z,22.90
2023-03-15T10:08:19.068Z,18.88
2023-03-15T10:11:08.620Z,21.10
2023-03-15T10:13:38.687Z,22.25
2023-03-15T10:16:20.439Z,27.05
2023-03-15T10:18:56.002Z,28.42
2023-03-15T10:21:31.569Z,25.05
2023-03-15T10:23:59.546Z,21.50
2023-03-15T10:26:32.679Z,24.10
2023-03-15T10:29:02.304Z,23.63
2023-03-15T10:31:44.038Z,25.30
2023-03-15T10:34:12.830Z,26.10
2023-03-15T10:36:49.747Z,26.80
2023-03-15T10:39:16.803Z,35.58
2023-03-15T10:41:46.361Z,33.65
2023-03-15T10:44:16.685Z,31.42
2023-03-15T10:47:04.671Z,26.13
2023-03-15T10:49:39.016Z,29.25
2023-03-15T10:52:06.148Z,28.80
2023-03-15T10:54:34.755Z,33.80
2023-03-15T10:57:12.152Z,36.10
2023-03-15T11:00:17.208Z,36.40
2023-03-15T11:02:52.374Z,33.42
2023-03-15T11:05:20.016Z,36.95
2023-03-15T11:07:58.816Z,30.15
2023-03-15T11:10:28.983Z,33.75
2023-03-15T11:13:13.739Z,27.67
2023-03-15T11:15:55.880Z,30.55
2023-03-15T11:18:30.833Z,28.70
2023-03-15T11:23:28.951Z,30.85
2023-03-15T11:25:56.454Z,32.22
2023-03-15T11:28:27.553Z,33.65
2023-03-15T11:30:55.586Z,34.33
2023-03-15T11:33:33.917Z,30.92
2023-03-15T11:36:05.149Z,31.33
2023-03-15T11:38:41.872Z,32.20
2023-03-15T11:41:29.728Z,33.65
2023-03-15T11:44:27.563Z,34.30
2023-03-15T11:47:08.041Z,33.95
2023-03-15T11:49:43.671Z,36.65
2023-03-15T11:52:10.814Z,37.80
2023-03-15T11:54:37.923Z,32.10
2023-03-15T11:57:09.949Z,43.60
2023-03-15T11:59:40.384Z,33.35
2023-03-15T12:02:10.262Z,44.65
2023-03-15T12:04:40.150Z,41.50
2023-03-15T12:07:31.287Z,42.72
2023-03-15T12:10:19.574Z,37.40
2023-03-15T12:12:56.401Z,42.83
2023-03-15T12:15:23.022Z,41.53
2023-03-15T12:17:58.962Z,44.95
2023-03-15T12:20:39.032Z,42.00
2023-03-15T12:23:17.997Z,42.15
2023-03-15T12:25:55.790Z,40.30
2023-03-15T12:28:28.586Z,39.72
2023-03-15T12:30:59.342Z,40.08
2023-03-15T12:33:28.871Z,40.65
2023-03-15T12:36:01.350Z,39.80
2023-03-15T12:38:36.572Z,37.92
2023-03-15T12:41:08.024Z,40.80
2023-03-15T12:43:45.006Z,44.13
2023-03-15T12:46:36.743Z,44.70
2023-03-15T12:49:24.630Z,45.10
2023-03-15T12:52:03.989Z,37.97
2023-03-15T12:54:48.893Z,38.17
2023-03-15T12:57:37.492Z,45.45
2023-03-15T13:00:15.900Z,50.28
2023-03-15T13:02:49.430Z,40.47
2023-03-15T13:05:20.959Z,34.20
2023-03-15T13:07:52.260Z,38.95
2023-03-15T13:10:46.870Z,43.95
2023-03-15T13:13:38.221Z,43.45
2023-03-15T13:16:43.512Z,33.10
2023-03-15T13:19:42.455Z,42.25
2023-03-15T13:22:14.882Z,46.50
2023-03-15T13:24:59.639Z,46.55
2023-03-15T13:27:41.471Z,46.53
2023-03-15T13:30:28.371Z,44.67
2023-03-15T13:33:20.912Z,44.03
2023-03-15T13:36:00.212Z,46.53
2023-03-15T13:38:46.334Z,43.55
2023-03-15T13:41:24.125Z,42.47
2023-03-15T13:43:52.933Z,43.80
2023-03-15T13:46:25.051Z,43.67
2023-03-15T13:48:53.632Z,44.80
2023-03-15T13:51:25.189Z,48.35
2023-03-15T13:54:03.172Z,40.72
2023-03-15T13:56:46.831Z,45.58
2023-03-15T13:59:15.660Z,43.67
2023-03-15T14:01:42.977Z,46.90
2023-03-15T14:04:17.774Z,44.50
2023-03-15T14:06:45.683Z,44.83
2023-03-15T14:09:25.848Z,44.40
2023-03-15T14:12:07.034Z,44.30
2023-03-15T14:14:38.557Z,45.38
2023-03-15T14:17:20.626Z,46.08
2023-03-15T14:19:54.816Z,45.10
2023-03-15T14:22:21.617Z,45.33
2023-03-15T14:24:51.003Z,44.22
2023-03-15T14:27:25.042Z,44.95
2023-03-15T14:29:54.314Z,43.60
2023-03-15T14:32:27.350Z,43.72
2023-03-15T14:35:02.239Z,46.50
2023-03-15T14:37:41.301Z,37.33
2023-03-15T14:40:30.313Z,51.60
2023-03-15T14:42:56.968Z,46.35
2023-03-15T14:45:23.842Z,45.47
2023-03-15T14:47:58.064Z,43.63
2023-03-15T14:50:36.983Z,43.72
2023-03-15T14:53:04.916Z,43.72
2023-03-15T14:55:35.011Z,41.70
2023-03-15T14:58:11.416Z,41.40
2023-03-15T15:00:38.439Z,40.53
2023-03-15T15:03:13.621Z,39.67
2023-03-15T15:05:41.372Z,38.58
2023-03-15T15:08:13.097Z,36.67
2023-03-15T15:10:41.326Z,36.92
2023-03-15T15:13:22.897Z,37.75
2023-03-15T15:15:55.596Z,37.20
2023-03-15T15:18:25.654Z,36.35
2023-03-15T15:20:55.631Z,37.45
2023-03-15T15:23:26.676Z,37.05
2023-03-15T15:25:57.839Z,35.33
2023-03-15T15:28:34.648Z,33.70
2023-03-15T15:31:04.208Z,40.53
2023-03-15T15:33:31.526Z,45.20
2023-03-15T15:35:58.196Z,39.17
2023-03-15T15:38:32.892Z,33.40
2023-03-15T15:40:59.754Z,40.10
2023-03-15T15:43:26.581Z,28.38
2023-03-15T15:45:53.283Z,31.35
2023-03-15T15:48:20.346Z,31.25
2023-03-15T15:50:47.057Z,32.38
2023-03-15T15:53:17.927Z,32.55
2023-03-15T15:55:45.665Z,33.63
2023-03-15T15:58:13.284Z,36.00
2023-03-15T16:00:40.000Z,36.75
2023-03-15T16:03:16.870Z,33.78
2023-03-15T16:05:43.967Z,36.58
2023-03-15T16:08:22.424Z,72.03
2023-03-15T16:10:49.230Z,68.57
2023-03-15T16:13:16.125Z,37.63
2023-03-15T16:15:43.004Z,38.90
2023-03-15T16:18:11.408Z,36.63
2023-03-15T16:20:40.527Z,39.60
2023-03-15T16:23:13.162Z,40.67
2023-03-15T16:25:42.109Z,35.78
2023-03-15T16:28:11.184Z,38.50
2023-03-15T16:30:37.907Z,39.88
2023-03-15T16:33:14.238Z,40.72
2023-03-15T16:35:41.020Z,47.55
2023-03-15T16:38:14.586Z,37.90
2023-03-15T16:40:45.174Z,39.17
2023-03-15T16:43:13.619Z,38.17
2023-03-15T16:45:40.652Z,42.50
2023-03-15T16:48:07.474Z,42.35
2023-03-15T16:50:35.404Z,41.85
2023-03-15T16:53:05.252Z,43.03
2023-03-15T16:55:35.149Z,42.05
2023-03-15T16:58:04.268Z,40.88
2023-03-15T17:00:31.587Z,42.13
2023-03-15T17:03:01.452Z,42.22
2023-03-15T17:05:28.455Z,41.80
2023-03-15T17:07:55.775Z,41.38
2023-03-15T17:10:29.023Z,40.95
2023-03-15T17:12:57.327Z,53.00
2023-03-15T17:15:25.724Z,42.05
2023-03-15T17:17:53.645Z,39.72
2023-03-15T17:20:28.246Z,40.25
2023-03-15T17:23:04.360Z,26.52
2023-03-15T17:25:32.368Z,28.42
2023-03-15T17:28:00.140Z,29.35
2023-03-15T17:30:32.135Z,30.58
2023-03-15T17:32:59.547Z,35.20
2023-03-15T17:35:33.870Z,41.08
2023-03-15T17:38:02.626Z,43.75
2023-03-15T17:40:31.384Z,66.70
2023-03-15T17:43:00.708Z,42.30
2023-03-15T17:45:32.943Z,38.55
2023-03-15T17:48:00.951Z,38.33
2023-03-15T17:50:30.332Z,37.67
2023-03-15T17:53:00.525Z,35.83
2023-03-15T17:55:29.006Z,33.03
2023-03-15T17:57:55.948Z,36.78
2023-03-15T18:00:24.738Z,37.20
2023-03-15T18:02:56.352Z,40.22
2023-03-15T18:05:25.575Z,28.10
2023-03-15T18:08:00.476Z,23.73
2023-03-15T18:10:34.536Z,25.65
2023-03-15T18:13:01.297Z,31.60
2023-03-15T18:15:28.042Z,42.25
2023-03-15T18:17:54.695Z,41.60
2023-03-15T18:20:23.610Z,76.40
2023-03-15T18:22:50.600Z,66.00
2023-03-15T18:25:24.943Z,62.67
2023-03-15T18:27:52.025Z,35.80
2023-03-15T18:30:21.808Z,32.72
2023-03-15T18:32:49.569Z,21.60
2023-03-15T18:35:23.626Z,23.73
2023-03-15T18:37:50.634Z,31.42
2023-03-15T18:40:19.604Z,27.00
2023-03-15T18:42:46.233Z,20.67
2023-03-15T18:45:28.540Z,17.60
2023-03-15T18:47:55.621Z,16.75
2023-03-15T18:50:22.937Z,16.58
2023-03-15T18:52:50.355Z,17.88
2023-03-15T18:55:19.214Z,19.02
2023-03-15T18:57:46.352Z,15.07
2023-03-15T19:00:16.801Z,13.95
2023-03-15T19:02:46.657Z,14.38
2023-03-15T19:05:14.297Z,13.70
2023-03-15T19:07:41.750Z,14.45
2023-03-15T19:10:11.715Z,14.38
2023-03-15T19:12:39.710Z,13.60
2023-03-15T19:15:10.506Z,15.35
2023-03-15T19:17:38.725Z,14.70
2023-03-15T19:20:07.593Z,15.73
2023-03-15T19:22:34.987Z,11.77
2023-03-15T19:25:01.925Z,11.48
2023-03-15T19:27:28.789Z,13.13
2023-03-15T19:29:55.542Z,17.38
2023-03-15T19:32:22.420Z,14.20
2023-03-15T19:34:49.163Z,15.60
2023-03-15T19:37:15.837Z,12.95
2023-03-15T19:39:42.513Z,15.93
2023-03-15T19:42:09.239Z,17.30
2023-03-15T19:44:36.043Z,15.65
2023-03-15T19:47:02.767Z,11.57
2023-03-15T19:49:29.461Z,10.63
2023-03-15T19:51:56.118Z,11.73
2023-03-15T19:54:22.780Z,12.80
2023-03-15T19:56:49.390Z,13.82
2023-03-15T19:59:16.052Z,13.00
2023-03-15T20:01:42.770Z,16.73
2023-03-15T20:04:09.510Z,20.63
2023-03-15T20:06:36.298Z,21.45
2023-03-15T20:09:03.760Z,21.33
2023-03-15T20:11:30.406Z,18.52
2023-03-15T20:13:57.076Z,18.27
2023-03-15T20:16:23.906Z,12.77
2023-03-15T20:18:55.572Z,11.15
2023-03-15T20:21:22.424Z,10.30
2023-03-15T20:23:49.405Z,10.43
2023-03-15T20:26:17.688Z,13.63
2023-03-15T20:28:44.786Z,18.25
2023-03-15T20:31:17.206Z,23.10
2023-03-15T20:33:47.131Z,25.05
2023-03-15T20:36:15.367Z,20.42
2023-03-15T20:38:42.121Z,13.27
2023-03-15T20:41:08.853Z,12.48
2023-03-15T20:43:35.788Z,12.70
2023-03-15T20:46:04.007Z,10.43
2023-03-15T20:48:32.175Z,9.32
2023-03-15T20:50:58.972Z,9.40
2023-03-15T20:53:26.137Z,9.45
2023-03-15T20:55:52.805Z,14.88
2023-03-15T20:58:19.470Z,24.10
2023-03-15T21:00:46.162Z,18.80
2023-03-15T21:03:14.740Z,13.65
2023-03-15T21:05:43.349Z,13.77
2023-03-15T21:08:10.422Z,11.73
2023-03-15T21:10:38.027Z,11.82
2023-03-15T21:13:09.523Z,10.40
2023-03-15T21:15:45.720Z,10.73
2023-03-15T21:18:14.669Z,11.10
2023-03-15T21:20:41.518Z,11.57
2023-03-15T21:23:08.983Z,11.10
2023-03-15T21:25:36.414Z,10.15
2023-03-15T21:28:04.164Z,11.00
2023-03-15T21:30:31.110Z,10.77
2023-03-15T21:32:58.176Z,8.55
2023-03-15T21:35:25.437Z,8.45
2023-03-15T21:37:52.159Z,8.82
2023-03-15T21:40:18.865Z,7.47
2023-03-15T21:42:47.514Z,8.10
2023-03-15T21:45:14.386Z,8.68
2023-03-15T21:47:41.392Z,10.05
2023-03-15T21:50:09.532Z,11.52
2023-03-15T21:52:36.129Z,10.63
2023-03-15T21:55:03.270Z,10.23
2023-03-15T21:57:29.915Z,9.40
2023-03-15T21:59:56.542Z,9.00
2023-03-15T22:02:23.147Z,8.75
2023-03-15T22:04:49.919Z,8.98
2023-03-15T22:07:16.671Z,8.75
2023-03-15T22:09:43.413Z,9.38
2023-03-15T22:12:10.342Z,9.73
2023-03-15T22:14:37.201Z,13.63
2023-03-15T22:17:04.524Z,12.38
2023-03-15T22:19:32.081Z,9.65
2023-03-15T22:21:58.868Z,8.70
2023-03-15T22:24:25.474Z,8.70
2023-03-15T22:26:53.001Z,8.40
2023-03-15T22:29:19.757Z,8.82
2023-03-15T22:31:46.393Z,9.90
2023-03-15T22:34:13.164Z,8.30
2023-03-15T22:36:39.887Z,8.68
2023-03-15T22:39:07.486Z,8.38
2023-03-15T22:41:34.248Z,8.50
2023-03-15T22:44:01.027Z,8.02
2023-03-15T22:46:28.379Z,8.80
2023-03-15T22:48:55.247Z,9.68
2023-03-15T22:51:21.935Z,9.50
2023-03-15T22:53:48.583Z,10.80
2023-03-15T22:56:15.351Z,10.00
2023-03-15T22:58:42.406Z,10.80
2023-03-15T23:01:10.080Z,10.18
2023-03-15T23:03:37.058Z,12.50
2023-03-15T23:06:04.001Z,11.75
2023-03-15T23:08:30.827Z,11.57
2023-03-15T23:10:58.478Z,10.88
2023-03-15T23:13:25.211Z,10.50
2023-03-15T23:15:51.871Z,9.90
2023-03-15T23:18:18.508Z,10.27
2023-03-15T23:20:45.225Z,9.18
2023-03-15T23:23:11.835Z,9.88
2023-03-15T23:25:39.635Z,9.43
2023-03-15T23:28:06.718Z,8.85
2023-03-15T23:30:35.748Z,9.05
2023-03-15T23:33:03.596Z,8.73
2023-03-15T23:35:31.330Z,8.80
2023-03-15T23:37:58.134Z,10.63
2023-03-15T23:40:25.681Z,9.00
2023-03-15T23:42:58.518Z,9.88
2023-03-15T23:45:27.082Z,10.27
2023-03-15T23:47:53.788Z,15.85
2023-03-15T23:50:20.697Z,14.75
2023-03-15T23:52:47.281Z,14.52
2023-03-15T23:55:13.941Z,14.15
2023-03-15T23:57:41.269Z,13.43
